sensor_id;sensor_type;location;lat;lon;timestamp;pressure;altitude;pressure_sealevel;temperature;humidity
34297;BME280;20564;42.902;25.336;2023-05-27T00:02:06;97272.63;;;13.87;100.00
34297;BME280;20564;42.902;25.336;2023-05-27T00:04:33;97269.84;;;13.97;100.00
34297;BME280;20564;42.902;25.336;2023-05-27T00:07:00;97266.19;;;13.90;100.00
34297;BME280;20564;42.902;25.336;2023-05-27T00:09:27;97263.56;;;13.98;100.00
34297;BME280;20564;42.902;25.336;2023-05-27T00:11:54;97270.31;;;13.92;100.00
34297;BME280;20564;42.902;25.336;2023-05-27T00:14:22;97261.53;;;13.92;100.00
34297;BME280;20564;42.902;25.336;2023-05-27T00:16:49;97258.91;;;13.92;100.00
34297;BME280;20564;42.902;25.336;2023-05-27T00:19:16;97258.06;;;13.91;100.00
34297;BME280;20564;42.902;25.336;2023-05-27T00:21:46;97250.66;;;13.95;100.00
34297;BME280;20564;42.902;25.336;2023-05-27T00:24:13;97252.16;;;13.97;100.00
34297;BME280;20564;42.902;25.336;2023-05-27T00:26:40;97239.06;;;13.96;100.00
34297;BME280;20564;42.902;25.336;2023-05-27T00:29:07;97233.13;;;13.94;100.00
34297;BME280;20564;42.902;25.336;2023-05-27T00:31:35;97231.28;;;13.94;100.00
34297;BME280;20564;42.902;25.336;2023-05-27T00:34:02;97225.19;;;13.94;100.00
34297;BME280;20564;42.902;25.336;2023-05-27T00:36:29;97228.78;;;13.93;100.00
34297;BME280;20564;42.902;25.336;2023-05-27T00:38:59;97210.25;;;13.85;100.00
34297;BME280;20564;42.902;25.336;2023-05-27T00:41:27;97220.84;;;13.85;100.00
34297;BME280;20564;42.902;25.336;2023-05-27T00:43:55;97217.22;;;13.86;100.00
34297;BME280;20564;42.902;25.336;2023-05-27T00:46:23;97217.84;;;13.80;100.00
34297;BME280;20564;42.902;25.336;2023-05-27T00:48:51;97204.75;;;13.78;100.00
34297;BME280;20564;42.902;25.336;2023-05-27T00:51:18;97212.38;;;13.81;100.00
34297;BME280;20564;42.902;25.336;2023-05-27T00:53:46;97207.59;;;13.85;100.00
34297;BME280;20564;42.902;25.336;2023-05-27T00:56:13;97209.09;;;13.79;100.00
34297;BME280;20564;42.902;25.336;2023-05-27T00:58:43;97206.94;;;13.83;100.00
34297;BME280;20564;42.902;25.336;2023-05-27T01:01:10;97206.28;;;13.81;100.00
34297;BME280;20564;42.902;25.336;2023-05-27T01:03:38;97197.19;;;13.83;100.00
34297;BME280;20564;42.902;25.336;2023-05-27T01:11:39;97174.53;;;13.89;100.00
34297;BME280;20564;42.902;25.336;2023-05-27T01:14:13;97188.44;;;13.91;100.00
34297;BME280;20564;42.902;25.336;2023-05-27T01:16:43;97187.16;;;14.03;100.00
34297;BME280;20564;42.902;25.336;2023-05-27T01:19:22;97186.97;;;13.96;100.00
34297;BME280;20564;42.902;25.336;2023-05-27T01:21:52;97187.47;;;14.00;100.00
34297;BME280;20564;42.902;25.336;2023-05-27T01:24:21;97185.16;;;13.97;100.00
34297;BME280;20564;42.902;25.336;2023-05-27T01:26:48;97190.78;;;14.02;100.00
34297;BME280;20564;42.902;25.336;2023-05-27T01:29:16;97188.78;;;13.96;100.00
34297;BME280;20564;42.902;25.336;2023-05-27T01:32:00;97176.88;;;14.00;100.00
34297;BME280;20564;42.902;25.336;2023-05-27T01:34:34;97175.56;;;13.96;100.00
34297;BME280;20564;42.902;25.336;2023-05-27T01:37:07;97173.59;;;13.98;100.00
34297;BME280;20564;42.902;25.336;2023-05-27T01:39:37;97169.94;;;13.99;100.00
34297;BME280;20564;42.902;25.336;2023-05-27T01:42:04;97170.75;;;13.99;100.00
34297;BME280;20564;42.902;25.336;2023-05-27T01:44:33;97171.56;;;13.92;100.00
34297;BME280;20564;42.902;25.336;2023-05-27T01:47:01;97174.53;;;13.89;100.00
34297;BME280;20564;42.902;25.336;2023-05-27T01:49:29;97175.22;;;13.83;100.00
34297;BME280;20564;42.902;25.336;2023-05-27T01:51:57;97173.22;;;13.85;100.00
34297;BME280;20564;42.902;25.336;2023-05-27T01:54:24;97171.56;;;13.84;100.00
34297;BME280;20564;42.902;25.336;2023-05-27T01:56:51;97172.06;;;13.79;100.00
34297;BME280;20564;42.902;25.336;2023-05-27T01:59:18;97178.66;;;13.75;100.00
34297;BME280;20564;42.902;25.336;2023-05-27T02:01:47;97172.84;;;13.71;100.00
34297;BME280;20564;42.902;25.336;2023-05-27T02:04:14;97173.81;;;13.70;100.00
34297;BME280;20564;42.902;25.336;2023-05-27T02:06:41;97175.97;;;13.67;100.00
34297;BME280;20564;42.902;25.336;2023-05-27T02:09:08;97175.13;;;13.66;100.00
34297;BME280;20564;42.902;25.336;2023-05-27T02:11:38;97172.16;;;13.61;100.00
34297;BME280;20564;42.902;25.336;2023-05-27T02:14:05;97169.78;;;13.50;100.00
34297;BME280;20564;42.902;25.336;2023-05-27T02:16:34;97180.69;;;13.47;100.00
34297;BME280;20564;42.902;25.336;2023-05-27T02:19:01;97174.88;;;13.43;100.00
34297;BME280;20564;42.902;25.336;2023-05-27T02:21:29;97181.78;;;13.36;100.00
34297;BME280;20564;42.902;25.336;2023-05-27T02:23:56;97181.63;;;13.38;100.00
34297;BME280;20564;42.902;25.336;2023-05-27T02:26:24;97184.25;;;13.38;100.00
34297;BME280;20564;42.902;25.336;2023-05-27T02:28:51;97184.22;;;13.30;100.00
34297;BME280;20564;42.902;25.336;2023-05-27T02:31:18;97192.78;;;13.23;100.00
34297;BME280;20564;42.902;25.336;2023-05-27T02:33:46;97189.91;;;13.17;100.00
34297;BME280;20564;42.902;25.336;2023-05-27T02:36:13;97191.38;;;13.11;100.00
34297;BME280;20564;42.902;25.336;2023-05-27T02:38:40;97176.34;;;13.12;100.00
34297;BME280;20564;42.902;25.336;2023-05-27T02:41:07;97189.72;;;13.10;100.00
34297;BME280;20564;42.902;25.336;2023-05-27T02:43:35;97186.69;;;13.05;100.00
34297;BME280;20564;42.902;25.336;2023-05-27T02:46:03;97189.28;;;12.97;100.00
34297;BME280;20564;42.902;25.336;2023-05-27T02:48:30;97193.28;;;13.01;100.00
34297;BME280;20564;42.902;25.336;2023-05-27T02:50:57;97179.41;;;12.99;100.00
34297;BME280;20564;42.902;25.336;2023-05-27T02:53:24;97188.47;;;12.96;100.00
34297;BME280;20564;42.902;25.336;2023-05-27T02:55:51;97189.59;;;12.94;100.00
34297;BME280;20564;42.902;25.336;2023-05-27T02:58:19;97195.56;;;12.96;100.00
34297;BME280;20564;42.902;25.336;2023-05-27T03:00:46;97186.28;;;12.92;100.00
34297;BME280;20564;42.902;25.336;2023-05-27T03:03:13;97195.56;;;12.96;100.00
34297;BME280;20564;42.902;25.336;2023-05-27T03:05:40;97194.25;;;13.00;100.00
34297;BME280;20564;42.902;25.336;2023-05-27T03:08:07;97194.06;;;12.93;100.00
34297;BME280;20564;42.902;25.336;2023-05-27T03:10:34;97188.63;;;12.95;100.00
34297;BME280;20564;42.902;25.336;2023-05-27T03:13:01;97194.88;;;12.94;100.00
34297;BME280;20564;42.902;25.336;2023-05-27T03:15:28;97188.94;;;12.92;100.00
34297;BME280;20564;42.902;25.336;2023-05-27T03:17:57;97188.13;;;12.91;100.00
34297;BME280;20564;42.902;25.336;2023-05-27T03:20:24;97197.59;;;13.02;100.00
34297;BME280;20564;42.902;25.336;2023-05-27T03:22:51;97193.13;;;13.02;100.00
34297;BME280;20564;42.902;25.336;2023-05-27T03:25:18;97194.25;;;13.00;100.00
34297;BME280;20564;42.902;25.336;2023-05-27T03:27:45;97185.00;;;12.96;100.00
34297;BME280;20564;42.902;25.336;2023-05-27T03:30:12;97205.19;;;13.05;100.00
34297;BME280;20564;42.902;25.336;2023-05-27T03:32:39;97206.69;;;13.08;100.00
34297;BME280;20564;42.902;25.336;2023-05-27T03:35:11;97198.63;;;13.09;100.00
34297;BME280;20564;42.902;25.336;2023-05-27T03:37:45;97203.78;;;13.19;100.00
34297;BME280;20564;42.902;25.336;2023-05-27T03:40:12;97197.09;;;13.24;100.00
34297;BME280;20564;42.902;25.336;2023-05-27T03:42:39;97189.81;;;13.26;100.00
34297;BME280;20564;42.902;25.336;2023-05-27T03:45:07;97189.03;;;13.34;100.00
34297;BME280;20564;42.902;25.336;2023-05-27T03:47:34;97198.16;;;13.40;100.00
34297;BME280;20564;42.902;25.336;2023-05-27T03:50:02;97193.59;;;13.50;100.00
34297;BME280;20564;42.902;25.336;2023-05-27T03:52:30;97189.28;;;13.49;100.00
34297;BME280;20564;42.902;25.336;2023-05-27T03:54:57;97187.50;;;13.58;100.00
34297;BME280;20564;42.902;25.336;2023-05-27T03:57:24;97194.34;;;13.68;100.00
34297;BME280;20564;42.902;25.336;2023-05-27T03:59:51;97190.69;;;13.69;100.00
34297;BME280;20564;42.902;25.336;2023-05-27T04:02:18;97193.03;;;13.72;100.00
34297;BME280;20564;42.902;25.336;2023-05-27T04:04:45;97195.03;;;13.79;100.00
34297;BME280;20564;42.902;25.336;2023-05-27T04:07:13;97190.09;;;13.84;100.00
34297;BME280;20564;42.902;25.336;2023-05-27T04:09:39;97199.34;;;13.88;100.00
34297;BME280;20564;42.902;25.336;2023-05-27T04:12:07;97196.72;;;13.96;100.00
34297;BME280;20564;42.902;25.336;2023-05-27T04:14:35;97189.47;;;13.98;100.00
34297;BME280;20564;42.902;25.336;2023-05-27T04:17:02;97187.16;;;14.11;100.00
34297;BME280;20564;42.902;25.336;2023-05-27T04:19:29;97195.78;;;14.21;100.00
34297;BME280;20564;42.902;25.336;2023-05-27T04:21:59;97196.78;;;14.29;100.00
34297;BME280;20564;42.902;25.336;2023-05-27T04:24:26;97196.47;;;14.32;100.00
34297;BME280;20564;42.902;25.336;2023-05-27T04:26:53;97202.28;;;14.35;100.00
34297;BME280;20564;42.902;25.336;2023-05-27T04:29:20;97196.16;;;14.35;100.00
34297;BME280;20564;42.902;25.336;2023-05-27T04:31:49;97204.78;;;14.45;100.00
34297;BME280;20564;42.902;25.336;2023-05-27T04:34:17;97203.09;;;14.44;100.00
34297;BME280;20564;42.902;25.336;2023-05-27T04:36:44;97198.47;;;14.46;100.00
34297;BME280;20564;42.902;25.336;2023-05-27T04:39:16;97212.75;;;14.53;100.00
34297;BME280;20564;42.902;25.336;2023-05-27T04:41:43;97218.38;;;14.58;100.00
34297;BME280;20564;42.902;25.336;2023-05-27T04:44:11;97217.03;;;14.62;100.00
34297;BME280;20564;42.902;25.336;2023-05-27T04:46:38;97223.84;;;14.65;100.00
34297;BME280;20564;42.902;25.336;2023-05-27T04:49:06;97224.34;;;14.68;100.00
34297;BME280;20564;42.902;25.336;2023-05-27T04:51:32;97225.66;;;14.73;100.00
34297;BME280;20564;42.902;25.336;2023-05-27T04:54:02;97223.38;;;14.78;100.00
34297;BME280;20564;42.902;25.336;2023-05-27T04:56:29;97220.38;;;14.89;100.00
34297;BME280;20564;42.902;25.336;2023-05-27T04:58:56;97226.00;;;14.94;100.00
34297;BME280;20564;42.902;25.336;2023-05-27T05:01:25;97223.84;;;14.98;100.00
34297;BME280;20564;42.902;25.336;2023-05-27T05:03:54;97232.28;;;15.09;100.00
34297;BME280;20564;42.902;25.336;2023-05-27T05:06:39;97236.59;;;15.10;100.00
34297;BME280;20564;42.902;25.336;2023-05-27T05:09:06;97232.94;;;15.11;100.00
34297;BME280;20564;42.902;25.336;2023-05-27T05:11:38;97234.25;;;15.24;100.00
34297;BME280;20564;42.902;25.336;2023-05-27T05:14:05;97242.50;;;15.45;100.00
34297;BME280;20564;42.902;25.336;2023-05-27T05:16:32;97239.97;;;15.60;100.00
34297;BME280;20564;42.902;25.336;2023-05-27T05:18:59;97239.47;;;15.73;100.00
34297;BME280;20564;42.902;25.336;2023-05-27T05:21:26;97241.91;;;15.90;100.00
34297;BME280;20564;42.902;25.336;2023-05-27T05:23:53;97247.81;;;16.01;100.00
34297;BME280;20564;42.902;25.336;2023-05-27T05:26:20;97257.22;;;16.11;100.00
34297;BME280;20564;42.902;25.336;2023-05-27T05:28:47;97254.19;;;16.23;100.00
34297;BME280;20564;42.902;25.336;2023-05-27T05:31:14;97251.44;;;16.39;100.00
34297;BME280;20564;42.902;25.336;2023-05-27T05:33:41;97252.00;;;16.57;100.00
34297;BME280;20564;42.902;25.336;2023-05-27T05:36:08;97253.28;;;16.61;100.00
34297;BME280;20564;42.902;25.336;2023-05-27T05:38:35;97248.78;;;16.62;100.00
34297;BME280;20564;42.902;25.336;2023-05-27T05:41:02;97248.84;;;16.54;100.00
34297;BME280;20564;42.902;25.336;2023-05-27T05:43:31;97252.88;;;16.50;100.00
34297;BME280;20564;42.902;25.336;2023-05-27T05:45:58;97252.81;;;16.58;100.00
34297;BME280;20564;42.902;25.336;2023-05-27T05:48:26;97259.25;;;16.63;100.00
34297;BME280;20564;42.902;25.336;2023-05-27T05:50:53;97258.88;;;16.67;100.00
34297;BME280;20564;42.902;25.336;2023-05-27T05:53:20;97268.69;;;16.66;100.00
34297;BME280;20564;42.902;25.336;2023-05-27T05:55:48;97260.19;;;16.71;100.00
34297;BME280;20564;42.902;25.336;2023-05-27T05:58:14;97268.81;;;16.73;100.00
34297;BME280;20564;42.902;25.336;2023-05-27T06:00:42;97263.22;;;16.68;100.00
34297;BME280;20564;42.902;25.336;2023-05-27T06:03:09;97274.13;;;16.73;100.00
34297;BME280;20564;42.902;25.336;2023-05-27T06:05:36;97272.84;;;16.69;100.00
34297;BME280;20564;42.902;25.336;2023-05-27T06:08:04;97279.44;;;16.73;100.00
34297;BME280;20564;42.902;25.336;2023-05-27T06:10:31;97276.13;;;16.71;100.00
34297;BME280;20564;42.902;25.336;2023-05-27T06:12:58;97278.50;;;16.66;100.00
34297;BME280;20564;42.902;25.336;2023-05-27T06:15:25;97274.84;;;16.67;100.00
34297;BME280;20564;42.902;25.336;2023-05-27T06:17:53;97278.78;;;16.71;100.00
34297;BME280;20564;42.902;25.336;2023-05-27T06:20:21;97283.13;;;16.72;100.00
34297;BME280;20564;42.902;25.336;2023-05-27T06:22:49;97292.94;;;16.71;100.00
34297;BME280;20564;42.902;25.336;2023-05-27T06:25:16;97288.13;;;16.75;100.00
34297;BME280;20564;42.902;25.336;2023-05-27T06:27:46;97293.44;;;16.75;100.00
34297;BME280;20564;42.902;25.336;2023-05-27T06:30:13;97299.72;;;16.82;100.00
34297;BME280;20564;42.902;25.336;2023-05-27T06:32:40;97299.53;;;16.83;100.00
34297;BME280;20564;42.902;25.336;2023-05-27T06:35:07;97296.31;;;16.88;100.00
34297;BME280;20564;42.902;25.336;2023-05-27T06:37:34;97298.75;;;16.98;100.00
34297;BME280;20564;42.902;25.336;2023-05-27T06:40:02;97304.69;;;17.00;100.00
34297;BME280;20564;42.902;25.336;2023-05-27T06:42:30;97311.84;;;16.99;100.00
34297;BME280;20564;42.902;25.336;2023-05-27T06:44:57;97316.22;;;16.92;100.00
34297;BME280;20564;42.902;25.336;2023-05-27T06:47:24;97304.00;;;16.83;100.00
34297;BME280;20564;42.902;25.336;2023-05-27T06:49:52;97307.97;;;16.87;100.00
34297;BME280;20564;42.902;25.336;2023-05-27T06:52:19;97305.19;;;16.80;100.00
34297;BME280;20564;42.902;25.336;2023-05-27T06:54:48;97308.53;;;16.74;100.00
34297;BME280;20564;42.902;25.336;2023-05-27T06:57:18;97315.38;;;16.69;100.00
34297;BME280;20564;42.902;25.336;2023-05-27T06:59:45;97306.91;;;16.65;100.00
34297;BME280;20564;42.902;25.336;2023-05-27T07:02:12;97306.72;;;16.67;100.00
34297;BME280;20564;42.902;25.336;2023-05-27T07:04:40;97310.41;;;16.66;100.00
34297;BME280;20564;42.902;25.336;2023-05-27T07:07:07;97304.38;;;16.72;100.00
34297;BME280;20564;42.902;25.336;2023-05-27T07:09:34;97315.84;;;16.72;100.00
34297;BME280;20564;42.902;25.336;2023-05-27T07:12:01;97314.72;;;16.75;100.00
34297;BME280;20564;42.902;25.336;2023-05-27T07:14:29;97320.66;;;16.77;100.00
34297;BME280;20564;42.902;25.336;2023-05-27T07:16:55;97318.47;;;16.80;100.00
34297;BME280;20564;42.902;25.336;2023-05-27T07:19:25;97317.66;;;16.80;100.00
34297;BME280;20564;42.902;25.336;2023-05-27T07:21:57;97312.88;;;16.75;100.00
34297;BME280;20564;42.902;25.336;2023-05-27T07:24:27;97311.84;;;16.76;100.00
34297;BME280;20564;42.902;25.336;2023-05-27T07:26:53;97315.34;;;16.77;100.00
34297;BME280;20564;42.902;25.336;2023-05-27T07:29:24;97317.84;;;16.78;100.00
34297;BME280;20564;42.902;25.336;2023-05-27T07:31:51;97313.97;;;16.81;100.00
34297;BME280;20564;42.902;25.336;2023-05-27T07:34:18;97315.28;;;16.85;100.00
34297;BME280;20564;42.902;25.336;2023-05-27T07:36:50;97323.22;;;16.93;100.00
34297;BME280;20564;42.902;25.336;2023-05-27T07:39:18;97316.69;;;16.96;100.00
34297;BME280;20564;42.902;25.336;2023-05-27T07:41:45;97317.19;;;16.99;100.00
34297;BME280;20564;42.902;25.336;2023-05-27T07:44:11;97313.88;;;16.97;100.00
34297;BME280;20564;42.902;25.336;2023-05-27T07:46:38;97315.19;;;17.01;100.00
34297;BME280;20564;42.902;25.336;2023-05-27T07:49:06;97317.78;;;17.09;100.00
34297;BME280;20564;42.902;25.336;2023-05-27T07:51:32;97313.75;;;17.14;100.00
34297;BME280;20564;42.902;25.336;2023-05-27T07:53:59;97308.78;;;17.10;100.00
34297;BME280;20564;42.902;25.336;2023-05-27T07:56:26;97317.78;;;17.09;100.00
34297;BME280;20564;42.902;25.336;2023-05-27T07:58:53;97318.59;;;17.10;100.00
34297;BME280;20564;42.902;25.336;2023-05-27T08:01:20;97314.41;;;17.16;100.00
34297;BME280;20564;42.902;25.336;2023-05-27T08:03:47;97322.03;;;17.19;100.00
34297;BME280;20564;42.902;25.336;2023-05-27T08:06:16;97324.31;;;17.22;100.00
34297;BME280;20564;42.902;25.336;2023-05-27T08:08:48;97321.66;;;17.22;100.00
34297;BME280;20564;42.902;25.336;2023-05-27T08:11:16;97320.13;;;17.27;100.00
34297;BME280;20564;42.902;25.336;2023-05-27T08:13:43;97332.66;;;17.42;100.00
34297;BME280;20564;42.902;25.336;2023-05-27T08:16:11;97331.53;;;17.51;100.00
34297;BME280;20564;42.902;25.336;2023-05-27T08:18:38;97330.38;;;17.53;100.00
34297;BME280;20564;42.902;25.336;2023-05-27T08:21:05;97332.94;;;17.62;100.00
34297;BME280;20564;42.902;25.336;2023-05-27T08:23:32;97337.44;;;17.61;100.00
34297;BME280;20564;42.902;25.336;2023-05-27T08:25:59;97332.69;;;17.71;100.00
34297;BME280;20564;42.902;25.336;2023-05-27T08:28:26;97333.31;;;17.81;100.00
34297;BME280;20564;42.902;25.336;2023-05-27T08:30:53;97329.81;;;17.96;100.00
34297;BME280;20564;42.902;25.336;2023-05-27T08:33:21;97330.91;;;18.16;100.00
34297;BME280;20564;42.902;25.336;2023-05-27T08:35:50;97320.53;;;18.36;100.00
34297;BME280;20564;42.902;25.336;2023-05-27T08:38:17;97319.66;;;18.50;100.00
34297;BME280;20564;42.902;25.336;2023-05-27T08:40:44;97312.28;;;18.52;100.00
34297;BME280;20564;42.902;25.336;2023-05-27T08:43:11;97310.28;;;18.54;100.00
34297;BME280;20564;42.902;25.336;2023-05-27T08:45:38;97317.53;;;18.46;100.00
34297;BME280;20564;42.902;25.336;2023-05-27T08:48:08;97312.41;;;18.44;100.00
34297;BME280;20564;42.902;25.336;2023-05-27T08:50:35;97316.84;;;18.37;100.00
34297;BME280;20564;42.902;25.336;2023-05-27T08:53:03;97324.56;;;18.32;100.00
34297;BME280;20564;42.902;25.336;2023-05-27T08:55:30;97321.97;;;18.24;100.00
34297;BME280;20564;42.902;25.336;2023-05-27T08:57:59;97310.13;;;18.26;100.00
34297;BME280;20564;42.902;25.336;2023-05-27T09:00:28;97319.59;;;18.29;100.00
34297;BME280;20564;42.902;25.336;2023-05-27T09:02:55;97309.31;;;18.26;100.00
34297;BME280;20564;42.902;25.336;2023-05-27T09:05:26;97312.59;;;18.28;100.00
34297;BME280;20564;42.902;25.336;2023-05-27T09:07:53;97310.84;;;18.35;100.00
34297;BME280;20564;42.902;25.336;2023-05-27T09:10:23;97310.69;;;18.37;100.00
34297;BME280;20564;42.902;25.336;2023-05-27T09:12:50;97311.69;;;18.50;100.00
34297;BME280;20564;42.902;25.336;2023-05-27T09:15:17;97301.59;;;18.67;100.00
34297;BME280;20564;42.902;25.336;2023-05-27T09:17:46;97292.97;;;18.80;100.00
34297;BME280;20564;42.902;25.336;2023-05-27T09:20:13;97286.59;;;19.02;100.00
34297;BME280;20564;42.902;25.336;2023-05-27T09:22:40;97291.78;;;19.32;100.00
34297;BME280;20564;42.902;25.336;2023-05-27T09:25:08;97279.44;;;19.59;100.00
34297;BME280;20564;42.902;25.336;2023-05-27T09:27:36;97281.28;;;19.80;99.34
34297;BME280;20564;42.902;25.336;2023-05-27T09:30:09;97274.97;;;19.94;98.17
34297;BME280;20564;42.902;25.336;2023-05-27T09:32:36;97268.72;;;20.15;97.18
34297;BME280;20564;42.902;25.336;2023-05-27T09:35:05;97270.41;;;20.23;98.12
34297;BME280;20564;42.902;25.336;2023-05-27T09:37:34;97269.16;;;20.19;94.01
34297;BME280;20564;42.902;25.336;2023-05-27T09:40:08;97263.22;;;20.30;94.54
34297;BME280;20564;42.902;25.336;2023-05-27T09:42:47;97256.06;;;20.37;94.69
34297;BME280;20564;42.902;25.336;2023-05-27T09:45:17;97262.63;;;20.35;95.74
34297;BME280;20564;42.902;25.336;2023-05-27T09:47:50;97264.31;;;20.49;93.82
34297;BME280;20564;42.902;25.336;2023-05-27T09:50:20;97269.25;;;20.45;92.78
34297;BME280;20564;42.902;25.336;2023-05-27T09:52:48;97266.53;;;20.39;91.82
34297;BME280;20564;42.902;25.336;2023-05-27T09:55:31;97260.78;;;20.35;90.01
34297;BME280;20564;42.902;25.336;2023-05-27T09:57:59;97266.50;;;20.32;92.17
34297;BME280;20564;42.902;25.336;2023-05-27T10:00:28;97268.78;;;20.35;90.93
34297;BME280;20564;42.902;25.336;2023-05-27T10:02:56;97258.97;;;20.49;91.03
34297;BME280;20564;42.902;25.336;2023-05-27T10:05:26;97268.06;;;20.61;91.58
34297;BME280;20564;42.902;25.336;2023-05-27T10:07:53;97257.59;;;20.73;89.46
34297;BME280;20564;42.902;25.336;2023-05-27T10:10:24;97268.94;;;20.75;87.98
34297;BME280;20564;42.902;25.336;2023-05-27T10:12:52;97260.28;;;20.73;87.95
34297;BME280;20564;42.902;25.336;2023-05-27T10:15:31;97270.16;;;20.66;89.07
34297;BME280;20564;42.902;25.336;2023-05-27T10:18:06;97262.72;;;20.61;88.13
34297;BME280;20564;42.902;25.336;2023-05-27T10:20:34;97254.22;;;20.44;87.53
34297;BME280;20564;42.902;25.336;2023-05-27T10:25:40;97258.47;;;20.19;89.20
34297;BME280;20564;42.902;25.336;2023-05-27T10:28:07;97268.47;;;20.10;89.68
34297;BME280;20564;42.902;25.336;2023-05-27T10:30:44;97259.16;;;19.93;91.15
34297;BME280;20564;42.902;25.336;2023-05-27T10:33:12;97256.84;;;19.83;91.73
34297;BME280;20564;42.902;25.336;2023-05-27T10:35:41;97261.94;;;19.78;93.06
34297;BME280;20564;42.902;25.336;2023-05-27T10:38:16;97269.06;;;19.64;93.35
34297;BME280;20564;42.902;25.336;2023-05-27T10:40:45;97264.22;;;19.53;94.28
34297;BME280;20564;42.902;25.336;2023-05-27T10:43:16;97258.34;;;19.36;97.48
34297;BME280;20564;42.902;25.336;2023-05-27T10:45:44;97251.53;;;19.34;99.28
34297;BME280;20564;42.902;25.336;2023-05-27T10:48:19;97259.38;;;19.35;100.00
34297;BME280;20564;42.902;25.336;2023-05-27T10:50:56;97251.53;;;19.27;100.00
34297;BME280;20564;42.902;25.336;2023-05-27T10:53:25;97244.22;;;19.14;100.00
34297;BME280;20564;42.902;25.336;2023-05-27T10:55:53;97239.19;;;19.04;100.00
34297;BME280;20564;42.902;25.336;2023-05-27T10:58:21;97235.91;;;19.02;100.00
34297;BME280;20564;42.902;25.336;2023-05-27T11:00:50;97235.91;;;19.02;100.00
34297;BME280;20564;42.902;25.336;2023-05-27T11:03:22;97233.38;;;18.94;100.00
34297;BME280;20564;42.902;25.336;2023-05-27T11:06:05;97225.25;;;19.02;100.00
34297;BME280;20564;42.902;25.336;2023-05-27T11:08:33;97221.94;;;19.00;100.00
34297;BME280;20564;42.902;25.336;2023-05-27T11:11:02;97216.88;;;19.06;100.00
34297;BME280;20564;42.902;25.336;2023-05-27T11:13:40;97212.13;;;19.08;100.00
34297;BME280;20564;42.902;25.336;2023-05-27T11:16:13;97208.50;;;19.15;100.00
34297;BME280;20564;42.902;25.336;2023-05-27T11:18:45;97208.41;;;19.30;100.00
34297;BME280;20564;42.902;25.336;2023-05-27T11:21:15;97197.44;;;19.46;100.00
34297;BME280;20564;42.902;25.336;2023-05-27T11:23:46;97189.91;;;19.57;100.00
34297;BME280;20564;42.902;25.336;2023-05-27T11:26:20;97190.63;;;19.72;100.00
34297;BME280;20564;42.902;25.336;2023-05-27T11:28:52;97188.84;;;19.92;100.00
34297;BME280;20564;42.902;25.336;2023-05-27T11:31:26;97181.16;;;20.24;100.00
34297;BME280;20564;42.902;25.336;2023-05-27T11:33:54;97174.06;;;20.58;100.00
34297;BME280;20564;42.902;25.336;2023-05-27T11:36:25;97175.53;;;20.74;100.00
34297;BME280;20564;42.902;25.336;2023-05-27T11:38:56;97172.25;;;20.91;100.00
34297;BME280;20564;42.902;25.336;2023-05-27T11:41:29;97173.03;;;20.99;100.00
34297;BME280;20564;42.902;25.336;2023-05-27T11:43:58;97177.78;;;20.97;98.66
34297;BME280;20564;42.902;25.336;2023-05-27T11:46:40;97167.31;;;20.88;96.64
34297;BME280;20564;42.902;25.336;2023-05-27T11:49:09;97167.72;;;20.85;94.07
34297;BME280;20564;42.902;25.336;2023-05-27T11:51:41;97166.06;;;20.84;99.51
34297;BME280;20564;42.902;25.336;2023-05-27T11:54:28;97168.91;;;21.09;98.05
34297;BME280;20564;42.902;25.336;2023-05-27T11:56:56;97161.91;;;21.28;98.86
34297;BME280;20564;42.902;25.336;2023-05-27T11:59:25;97153.47;;;21.45;96.49
34297;BME280;20564;42.902;25.336;2023-05-27T12:01:52;97147.22;;;21.64;95.76
34297;BME280;20564;42.902;25.336;2023-05-27T12:04:21;97137.44;;;21.89;94.32
34297;BME280;20564;42.902;25.336;2023-05-27T12:06:48;97143.94;;;22.07;90.20
34297;BME280;20564;42.902;25.336;2023-05-27T12:09:15;97135.25;;;22.11;89.62
34297;BME280;20564;42.902;25.336;2023-05-27T12:11:42;97137.88;;;22.31;88.02
34297;BME280;20564;42.902;25.336;2023-05-27T12:14:09;97125.34;;;22.19;85.92
34297;BME280;20564;42.902;25.336;2023-05-27T12:16:36;97120.25;;;22.04;83.81
34297;BME280;20564;42.902;25.336;2023-05-27T12:19:03;97121.78;;;21.86;83.45
34297;BME280;20564;42.902;25.336;2023-05-27T12:21:30;97125.97;;;21.76;86.57
34297;BME280;20564;42.902;25.336;2023-05-27T12:23:57;97114.84;;;21.72;85.58
34297;BME280;20564;42.902;25.336;2023-05-27T12:26:27;97114.00;;;21.72;85.57
34297;BME280;20564;42.902;25.336;2023-05-27T12:28:54;97112.00;;;21.60;86.46
34297;BME280;20564;42.902;25.336;2023-05-27T12:31:23;97112.47;;;21.31;89.28
34297;BME280;20564;42.902;25.336;2023-05-27T12:33:51;97116.63;;;21.20;85.21
34297;BME280;20564;42.902;25.336;2023-05-27T12:36:18;97112.94;;;21.08;89.25
34297;BME280;20564;42.902;25.336;2023-05-27T12:38:50;97112.31;;;21.06;87.96
34297;BME280;20564;42.902;25.336;2023-05-27T12:41:23;97101.19;;;21.02;89.42
34297;BME280;20564;42.902;25.336;2023-05-27T12:43:50;97098.50;;;21.22;90.10
34297;BME280;20564;42.902;25.336;2023-05-27T12:46:17;97101.38;;;21.20;87.32
34297;BME280;20564;42.902;25.336;2023-05-27T12:48:44;97093.97;;;21.16;86.88
34297;BME280;20564;42.902;25.336;2023-05-27T12:51:12;97094.78;;;21.30;86.48
34297;BME280;20564;42.902;25.336;2023-05-27T12:53:40;97077.16;;;21.67;86.13
34297;BME280;20564;42.902;25.336;2023-05-27T12:56:10;97073.53;;;21.86;81.94
34297;BME280;20564;42.902;25.336;2023-05-27T12:58:37;97073.09;;;21.96;81.15